Time;durP1;ratioP1;P1;durP2;ratioP2;P2;SDS_P1;SDS_P2;PMS_P1;PMS_P2;Temp;Humidity;BMP_temperature;BMP_pressure;BME280_temperature;BME280_humidity;BME280_pressure;Samples;Min_cycle;Max_cycle;Signal;HPM_P1;HPM_P2
2022/12/21 00:02:28;;;;;;;15.47;12.60;;;10.10;1.00;;;;;;5044523;28;20199;-87
2022/12/21 00:05:01;;;;;;;15.90;13.80;;;9.50;1.00;;;;;;5019021;28;20259;-88
2022/12/21 00:07:29;;;;;;;16.37;14.67;;;10.00;1.00;;;;;;5040153;28;20205;-89
2022/12/21 00:09:58;;;;;;;16.63;14.67;;;10.10;1.00;;;;;;5026103;28;20667;-85
2022/12/21 00:12:27;;;;;;;19.10;17.03;;;10.10;1.00;;;;;;5041576;28;20195;-86
2022/12/21 00:14:55;;;;;;;15.10;13.50;;;10.10;1.00;;;;;;5027371;28;20199;-88
2022/12/21 00:17:23;;;;;;;14.70;12.93;;;10.10;1.00;;;;;;5026902;28;20242;-88
2022/12/21 00:19:51;;;;;;;15.87;13.47;;;10.10;1.00;;;;;;5012398;28;20581;-83
2022/12/21 00:22:19;;;;;;;16.30;14.67;;;10.10;1.00;;;;;;5031400;28;20207;-88
2022/12/21 00:24:51;;;;;;;16.17;14.47;;;10.10;1.00;;;;;;5018177;28;20220;-88
2022/12/21 00:27:20;;;;;;;19.23;16.77;;;10.10;1.00;;;;;;5038921;28;20793;-87
2022/12/21 00:29:48;;;;;;;17.83;14.63;;;10.10;1.00;;;;;;5046507;28;20266;-88
2022/12/21 00:32:17;;;;;;;18.83;16.83;;;10.10;1.00;;;;;;5029170;28;20238;-87
2022/12/21 00:34:48;;;;;;;22.77;20.67;;;10.10;1.00;;;;;;5025727;28;20200;-88
2022/12/21 00:37:16;;;;;;;24.30;21.87;;;10.10;1.00;;;;;;5028187;28;20195;-88
2022/12/21 00:39:43;;;;;;;24.07;21.67;;;10.10;1.00;;;;;;5031264;28;20562;-87
2022/12/21 00:42:14;;;;;;;16.27;14.67;;;10.10;1.00;;;;;;5025220;28;20215;-87
2022/12/21 00:44:42;;;;;;;16.33;13.77;;;10.10;1.00;;;;;;5018451;28;20215;-88
2022/12/21 00:47:10;;;;;;;16.53;13.13;;;10.10;1.00;;;;;;5035707;28;20586;-88
2022/12/21 00:49:40;;;;;;;17.83;14.07;;;10.10;1.00;;;;;;5026915;28;20192;-87
2022/12/21 00:52:07;;;;;;;16.13;13.63;;;10.00;1.00;;;;;;5019925;28;20184;-87
2022/12/21 00:54:35;;;;;;;14.73;13.20;;;10.10;1.00;;;;;;5018262;28;20192;-87
2022/12/21 00:57:03;;;;;;;17.40;15.57;;;10.10;1.00;;;;;;5040597;28;20198;-87
2022/12/21 00:59:30;;;;;;;18.80;15.60;;;10.10;1.00;;;;;;5040248;28;20239;-88
2022/12/21 01:01:57;;;;;;;20.23;16.23;;;10.10;1.00;;;;;;4999819;28;20195;-88
2022/12/21 01:04:27;;;;;;;19.77;16.87;;;10.10;1.00;;;;;;5025776;28;20243;-89
2022/12/21 01:06:54;;;;;;;19.50;16.40;;;10.10;1.00;;;;;;5008733;28;20224;-87
2022/12/21 01:09:21;;;;;;;22.03;17.00;;;10.10;1.00;;;;;;5026313;28;20218;-87
2022/12/21 01:11:49;;;;;;;21.87;17.67;;;10.10;1.00;;;;;;5011476;28;20193;-87
2022/12/21 01:14:16;;;;;;;24.37;19.20;;;10.00;1.00;;;;;;5007406;28;20275;-85
2022/12/21 01:16:45;;;;;;;27.83;19.27;;;10.00;41.20;;;;;;5025711;28;20211;-87
2022/12/21 01:19:12;;;;;;;26.97;19.40;;;10.00;99.90;;;;;;5000336;28;20705;-89
2022/12/21 01:21:41;;;;;;;29.67;20.10;;;10.10;99.90;;;;;;5023507;28;20683;-87
2022/12/21 01:24:12;;;;;;;27.47;20.33;;;10.00;99.90;;;;;;5029754;28;20204;-87
2022/12/21 01:26:44;;;;;;;29.30;21.17;;;10.00;99.90;;;;;;5031013;28;20209;-88
2022/12/21 01:29:13;;;;;;;31.47;21.90;;;10.00;99.90;;;;;;5027497;28;20239;-88
2022/12/21 01:31:43;;;;;;;32.53;22.07;;;10.00;99.90;;;;;;5043586;28;20216;-86
2022/12/21 01:34:12;;;;;;;32.97;22.13;;;10.00;99.90;;;;;;5025258;28;20189;-87
2022/12/21 01:36:39;;;;;;;36.97;23.70;;;10.00;1.00;;;;;;5027240;28;20199;-86
2022/12/21 01:39:06;;;;;;;39.03;24.13;;;10.00;1.00;;;;;;5007555;28;20732;-87
2022/12/21 01:41:33;;;;;;;35.53;24.53;;;10.00;1.00;;;;;;5023682;28;20212;-88
2022/12/21 01:44:47;;;;;;;34.67;22.57;;;10.00;1.00;;;;;;5026418;28;20224;-87
2022/12/21 01:47:22;;;;;;;37.67;24.00;;;9.90;1.00;;;;;;5013283;28;20214;-87
2022/12/21 01:49:54;;;;;;;33.93;23.60;;;9.90;1.00;;;;;;5044476;28;20192;-87
2022/12/21 01:52:22;;;;;;;40.00;24.97;;;9.90;1.00;;;;;;5000237;28;20195;-87
2022/12/21 01:54:54;;;;;;;38.80;24.13;;;9.90;1.00;;;;;;5026767;28;20749;-86
2022/12/21 01:57:29;;;;;;;36.97;23.57;;;9.90;34.70;;;;;;5024453;28;20210;-87
2022/12/21 02:00:01;;;;;;;39.37;25.17;;;9.90;99.90;;;;;;5024858;28;20590;-87
2022/12/21 02:02:36;;;;;;;42.10;25.70;;;9.90;99.90;;;;;;4996109;28;20189;-85
2022/12/21 02:05:33;;;;;;;43.13;26.37;;;9.90;99.90;;;;;;5008494;28;20238;-86
2022/12/21 02:08:03;;;;;;;39.10;25.93;;;9.90;99.90;;;;;;5034439;28;20208;-84
2022/12/21 02:10:34;;;;;;;42.93;25.30;;;9.90;99.90;;;;;;5021911;28;20261;-87
2022/12/21 02:13:05;;;;;;;46.70;25.43;;;9.90;99.90;;;;;;5023998;28;20195;-87
2022/12/21 02:15:59;;;;;;;42.33;25.00;;;9.90;99.90;;;;;;4997342;28;20208;-86
2022/12/21 02:18:58;;;;;;;38.30;24.70;;;9.90;1.00;;;;;;4999853;28;20598;-86
2022/12/21 02:21:47;;;;;;;42.87;25.93;;;9.90;1.00;;;;;;5024347;28;20238;-86
2022/12/21 02:24:21;;;;;;;41.60;25.27;;;9.90;1.00;;;;;;5024287;28;20208;-84
2022/12/21 02:27:07;;;;;;;41.67;26.43;;;9.90;1.00;;;;;;5018988;28;20814;-86
2022/12/21 02:29:46;;;;;;;50.93;28.73;;;9.90;1.00;;;;;;5022760;28;20210;-87
2022/12/21 02:32:48;;;;;;;47.77;26.80;;;9.90;1.00;;;;;;5010128;28;20200;-86
2022/12/21 02:35:54;;;;;;;45.73;26.43;;;9.90;1.00;;;;;;5040811;28;20203;-86
2022/12/21 02:38:41;;;;;;;45.77;25.50;;;9.90;1.00;;;;;;5012392;28;20698;-87
2022/12/21 02:41:35;;;;;;;46.27;26.37;;;9.90;1.00;;;;;;5025935;28;20207;-87
2022/12/21 02:44:30;;;;;;;43.93;26.40;;;9.90;1.00;;;;;;5017447;28;20265;-87
2022/12/21 02:47:04;;;;;;;48.40;26.37;;;9.80;1.00;;;;;;4997847;28;20233;-88
2022/12/21 02:49:47;;;;;;;48.43;27.77;;;9.90;1.00;;;;;;5021496;28;20206;-87
2022/12/21 02:52:17;;;;;;;48.43;26.93;;;9.90;1.00;;;;;;5041745;28;20196;-85
2022/12/21 02:54:45;;;;;;;53.67;28.63;;;9.90;1.00;;;;;;5009432;28;20201;-88
2022/12/21 02:57:13;;;;;;;49.90;27.50;;;9.80;16.50;;;;;;5027981;28;20206;-85
2022/12/21 02:59:46;;;;;;;50.60;28.83;;;9.80;64.40;;;;;;5005232;28;20203;-87
2022/12/21 03:02:45;;;;;;;54.53;27.73;;;9.80;99.90;;;;;;5036154;28;20258;-85
2022/12/21 03:05:29;;;;;;;53.70;28.97;;;9.80;99.90;;;;;;5001633;28;20232;-83
2022/12/21 03:08:20;;;;;;;52.90;29.37;;;9.80;99.90;;;;;;5019370;28;20208;-85
2022/12/21 03:11:04;;;;;;;55.50;29.80;;;9.80;99.90;;;;;;5033547;28;20206;-87
2022/12/21 03:13:48;;;;;;;52.30;28.60;;;9.80;99.90;;;;;;4986824;28;20204;-86
2022/12/21 03:16:26;;;;;;;48.83;28.17;;;9.80;99.90;;;;;;5014296;28;20699;-87
2022/12/21 03:19:06;;;;;;;50.43;28.93;;;9.80;99.90;;;;;;5029287;28;20199;-87
2022/12/21 03:21:45;;;;;;;46.23;27.13;;;9.80;99.90;;;;;;5029884;28;20234;-86
2022/12/21 03:24:28;;;;;;;47.57;27.70;;;9.80;99.90;;;;;;5009643;28;20235;-85
2022/12/21 03:27:06;;;;;;;54.93;27.40;;;9.80;99.90;;;;;;5011751;28;20215;-89
2022/12/21 03:29:40;;;;;;;52.50;28.27;;;9.80;99.90;;;;;;5023579;28;20206;-87
2022/12/21 03:32:18;;;;;;;59.47;30.07;;;9.80;1.00;;;;;;5016744;28;20191;-87
2022/12/21 03:34:51;;;;;;;56.43;29.43;;;9.80;1.00;;;;;;5030127;28;20649;-87
2022/12/21 03:37:34;;;;;;;60.70;29.70;;;9.80;1.00;;;;;;5018083;28;20295;-87
2022/12/21 03:40:26;;;;;;;61.20;29.77;;;9.80;1.00;;;;;;5017651;28;20201;-88
2022/12/21 03:43:04;;;;;;;60.90;29.00;;;9.80;1.00;;;;;;5014963;28;20204;-83
2022/12/21 03:45:38;;;;;;;53.17;28.67;;;9.70;1.00;;;;;;5025557;28;20215;-88
2022/12/21 03:48:12;;;;;;;55.63;28.77;;;9.80;1.00;;;;;;5026852;28;20533;-87
2022/12/21 03:50:47;;;;;;;53.70;28.80;;;9.80;1.00;;;;;;5025537;28;20222;-88
2022/12/21 03:53:39;;;;;;;62.57;30.57;;;9.80;1.00;;;;;;5013807;28;20226;-87
2022/12/21 03:56:16;;;;;;;61.60;31.07;;;9.80;1.00;;;;;;5029948;28;20246;-88
2022/12/21 03:58:44;;;;;;;62.63;31.83;;;9.70;1.00;;;;;;5010401;28;20252;-87
2022/12/21 04:01:33;;;;;;;62.40;32.20;;;9.70;1.00;;;;;;5028196;28;20667;-87
2022/12/21 04:04:12;;;;;;;60.93;30.37;;;9.70;1.00;;;;;;5046436;28;20326;-85
2022/12/21 04:06:42;;;;;;;63.80;31.37;;;9.70;1.00;;;;;;5020091;28;20216;-87
2022/12/21 04:09:09;;;;;;;63.53;31.87;;;9.70;1.00;;;;;;5020694;28;20214;-88
2022/12/21 04:14:26;;;;;;;73.23;32.13;;;9.70;1.00;;;;;;5028824;28;20215;-87
2022/12/21 04:16:53;;;;;;;79.30;34.37;;;9.70;1.00;;;;;;5017655;28;20227;-87
2022/12/21 04:22:07;;;;;;;76.13;32.87;;;9.70;1.00;;;;;;5028198;28;20196;-87
2022/12/21 04:30:08;;;;;;;77.93;34.57;;;9.70;1.00;;;;;;5048298;28;20254;-88
2022/12/21 04:32:35;;;;;;;75.80;33.90;;;9.70;1.00;;;;;;5025161;28;20185;-87
2022/12/21 04:35:03;;;;;;;92.03;34.60;;;9.70;1.00;;;;;;5023124;28;20247;-88
2022/12/21 04:37:31;;;;;;;85.53;34.00;;;9.60;1.00;;;;;;5024939;28;20204;-84
2022/12/21 04:39:59;;;;;;;82.07;32.17;;;9.60;1.00;;;;;;5005337;28;20206;-85
2022/12/21 04:42:27;;;;;;;75.00;33.33;;;9.60;1.00;;;;;;5002760;28;20209;-85
2022/12/21 04:44:54;;;;;;;70.53;30.67;;;9.70;1.00;;;;;;5033158;28;20196;-84
2022/12/21 04:47:21;;;;;;;82.57;34.30;;;9.60;1.00;;;;;;5024772;28;20226;-86
2022/12/21 04:49:48;;;;;;;81.77;33.30;;;9.60;1.00;;;;;;5009786;28;20192;-87
2022/12/21 04:52:15;;;;;;;83.50;34.27;;;9.60;1.00;;;;;;5021675;28;20223;-84
2022/12/21 04:54:46;;;;;;;88.77;34.70;;;9.60;99.90;;;;;;5018291;28;20211;-86
2022/12/21 04:57:14;;;;;;;90.87;33.23;;;9.60;99.90;;;;;;5033581;28;20204;-85
2022/12/21 04:59:41;;;;;;;85.97;32.90;;;8.60;1.00;;;;;;5024171;28;20266;-86
2022/12/21 05:02:09;;;;;;;90.60;33.97;;;9.50;1.00;;;;;;5029178;28;20208;-87
2022/12/21 05:04:40;;;;;;;77.80;31.23;;;9.50;1.00;;;;;;5028997;28;20269;-87
2022/12/21 05:07:07;;;;;;;88.13;33.20;;;9.50;1.00;;;;;;5013455;28;20253;-87
2022/12/21 05:09:34;;;;;;;70.43;29.37;;;9.60;1.00;;;;;;5025670;28;20245;-87
2022/12/21 05:12:02;;;;;;;72.80;31.13;;;9.60;1.00;;;;;;5041488;28;20200;-88
2022/12/21 05:14:31;;;;;;;74.03;30.83;;;9.50;1.00;;;;;;5024866;28;20200;-87
2022/12/21 05:16:58;;;;;;;69.23;30.03;;;9.50;1.00;;;;;;5026715;28;20204;-87
2022/12/21 05:19:25;;;;;;;73.80;30.10;;;9.60;1.00;;;;;;5028203;28;20203;-87
2022/12/21 05:21:53;;;;;;;66.53;29.87;;;9.60;1.00;;;;;;5028860;28;20291;-87
2022/12/21 05:24:20;;;;;;;67.30;30.57;;;9.50;1.00;;;;;;5027877;28;20199;-88
2022/12/21 05:26:47;;;;;;;64.00;28.23;;;9.60;1.00;;;;;;5021728;28;20200;-89
2022/12/21 05:29:14;;;;;;;66.27;29.60;;;9.60;1.00;;;;;;5004052;28;20207;-87
2022/12/21 05:31:43;;;;;;;64.33;30.23;;;9.60;1.00;;;;;;5029158;28;20193;-85
2022/12/21 05:34:10;;;;;;;59.23;27.43;;;9.60;1.00;;;;;;5026411;28;20294;-86
2022/12/21 05:36:36;;;;;;;69.00;29.33;;;9.60;1.00;;;;;;5016007;28;20231;-85
2022/12/21 05:39:05;;;;;;;70.23;28.43;;;9.60;1.00;;;;;;5042728;28;20196;-87
2022/12/21 05:41:32;;;;;;;69.63;28.70;;;9.60;1.00;;;;;;5036058;28;20241;-87
2022/12/21 05:44:00;;;;;;;59.97;27.53;;;9.50;1.00;;;;;;5005065;28;20211;-88
2022/12/21 05:46:26;;;;;;;65.80;26.87;;;9.40;99.90;;;;;;5031404;28;20223;-86
2022/12/21 05:48:59;;;;;;;107.30;26.00;;;9.50;99.90;;;;;;5043969;28;20200;-87
2022/12/21 05:51:52;;;;;;;131.13;25.90;;;9.40;99.90;;;;;;5034626;28;20263;-89
2022/12/21 05:54:19;;;;;;;94.13;27.87;;;9.30;99.90;;;;;;5044311;28;20546;-89
2022/12/21 05:56:47;;;;;;;96.57;26.80;;;9.30;1.00;;;;;;5044763;28;20204;-89
2022/12/21 05:59:25;;;;;;;84.17;25.03;;;9.30;1.00;;;;;;5029889;28;20235;-89
2022/12/21 06:01:56;;;;;;;73.30;25.47;;;9.30;1.00;;;;;;5060032;28;20212;-87
2022/12/21 06:04:30;;;;;;;54.70;23.50;;;9.30;1.00;;;;;;5037327;28;20290;-89
2022/12/21 06:06:57;;;;;;;50.60;24.03;;;9.30;1.00;;;;;;5011354;28;20235;-86
2022/12/21 06:09:24;;;;;;;48.53;23.40;;;9.30;1.00;;;;;;5032379;28;20591;-89
2022/12/21 06:11:52;;;;;;;57.57;25.03;;;9.30;1.00;;;;;;5029603;28;20207;-87
2022/12/21 06:14:22;;;;;;;51.37;23.60;;;9.30;1.00;;;;;;5028188;28;20187;-87
2022/12/21 06:16:49;;;;;;;48.97;23.57;;;9.30;1.00;;;;;;5027313;28;20207;-88
2022/12/21 06:19:25;;;;;;;55.17;24.77;;;9.30;1.00;;;;;;5046163;28;20215;-88
2022/12/21 06:21:55;;;;;;;62.13;24.60;;;9.30;1.00;;;;;;5025093;28;20215;-86
2022/12/21 06:24:24;;;;;;;53.30;24.90;;;9.30;1.00;;;;;;5017418;28;20433;-86
2022/12/21 06:26:51;;;;;;;53.93;24.83;;;9.30;1.00;;;;;;5024269;28;20623;-87
2022/12/21 06:29:18;;;;;;;62.70;29.40;;;9.40;1.00;;;;;;5010055;28;20207;-88
2022/12/21 06:31:47;;;;;;;73.90;32.30;;;9.40;1.00;;;;;;5025255;28;20203;-89
2022/12/21 06:34:14;;;;;;;66.13;27.97;;;9.40;1.00;;;;;;5045950;28;20282;-89
2022/12/21 06:36:41;;;;;;;67.93;29.70;;;9.40;1.00;;;;;;5029196;28;20652;-91
2022/12/21 06:39:08;;;;;;;55.57;26.67;;;9.40;1.00;;;;;;5026909;28;20249;-90
2022/12/21 06:41:35;;;;;;;51.30;26.07;;;9.50;1.00;;;;;;5021452;28;20557;-91
2022/12/21 06:44:02;;;;;;;56.73;28.30;;;9.50;1.00;;;;;;5010893;28;20205;-85
2022/12/21 06:46:34;;;;;;;55.43;26.33;;;9.50;1.00;;;;;;5022823;28;20696;-89
2022/12/21 06:49:04;;;;;;;48.57;25.67;;;9.40;1.00;;;;;;5050679;28;20218;-89
2022/12/21 06:51:35;;;;;;;50.00;24.57;;;9.50;1.00;;;;;;5030003;28;20195;-88
2022/12/21 06:54:03;;;;;;;52.40;25.07;;;9.50;1.00;;;;;;5030365;28;20219;-86
2022/12/21 06:56:31;;;;;;;52.77;25.30;;;9.40;1.00;;;;;;5010646;28;20655;-89
2022/12/21 06:58:58;;;;;;;52.57;25.70;;;9.50;1.00;;;;;;5024409;28;20559;-87
2022/12/21 07:01:32;;;;;;;46.53;23.80;;;9.50;1.00;;;;;;5016533;28;20212;-86
2022/12/21 07:04:00;;;;;;;46.80;24.53;;;9.50;1.00;;;;;;5010079;28;20294;-84
2022/12/21 07:06:29;;;;;;;53.30;26.00;;;9.50;1.00;;;;;;5041769;28;20235;-88
2022/12/21 07:08:59;;;;;;;44.93;24.37;;;9.40;1.00;;;;;;5003395;28;20759;-89
2022/12/21 07:11:29;;;;;;;48.80;25.67;;;9.50;1.00;;;;;;5031689;28;20201;-87
2022/12/21 07:13:57;;;;;;;47.87;24.67;;;9.40;1.00;;;;;;5008972;28;20683;-86
2022/12/21 07:16:24;;;;;;;50.50;25.43;;;9.40;1.00;;;;;;5025305;28;20234;-88
2022/12/21 07:18:53;;;;;;;50.70;25.00;;;9.40;1.00;;;;;;5030500;28;20266;-88
2022/12/21 07:21:20;;;;;;;46.73;23.97;;;9.30;1.00;;;;;;5027810;28;20208;-88
2022/12/21 07:23:48;;;;;;;44.70;24.47;;;9.30;24.00;;;;;;5010402;28;20208;-87
2022/12/21 07:26:18;;;;;;;46.33;23.27;;;9.40;99.90;;;;;;5035018;28;20261;-88
2022/12/21 07:28:47;;;;;;;43.00;22.97;;;9.40;99.90;;;;;;5045868;28;20286;-90
2022/12/21 07:31:24;;;;;;;47.93;23.97;;;9.40;99.90;;;;;;5011511;28;20192;-86
2022/12/21 07:33:55;;;;;;;46.20;23.40;;;9.40;99.90;;;;;;5028378;28;20189;-89
2022/12/21 07:36:23;;;;;;;45.33;23.53;;;9.40;99.90;;;;;;5026160;28;20204;-87
2022/12/21 07:38:53;;;;;;;47.23;23.60;;;9.40;99.90;;;;;;5037602;28;20207;-88
2022/12/21 07:41:23;;;;;;;48.77;23.87;;;9.50;99.90;;;;;;5036186;28;20193;-87
2022/12/21 07:43:57;;;;;;;45.63;23.77;;;9.40;99.90;;;;;;5031388;28;20192;-85
2022/12/21 07:46:44;;;;;;;45.37;23.57;;;9.40;99.90;;;;;;5027235;28;20215;-87
2022/12/21 07:49:15;;;;;;;36.07;21.43;;;9.50;99.90;;;;;;5018999;28;20234;-90
2022/12/21 07:51:42;;;;;;;38.43;22.27;;;9.50;99.90;;;;;;5018923;28;20204;-89
2022/12/21 07:54:11;;;;;;;37.70;22.10;;;9.50;99.90;;;;;;5033793;28;20215;-86
2022/12/21 07:56:41;;;;;;;36.87;21.80;;;9.60;99.90;;;;;;5000191;28;20663;-88
2022/12/21 07:59:09;;;;;;;44.80;23.57;;;9.40;99.90;;;;;;5009629;28;20204;-86
2022/12/21 08:01:36;;;;;;;41.73;23.20;;;9.30;8.10;;;;;;5030378;28;20234;-87
2022/12/21 08:04:07;;;;;;;55.40;24.47;;;9.30;99.90;;;;;;5042765;28;20216;-89
2022/12/21 08:06:34;;;;;;;57.37;23.33;;;9.20;99.90;;;;;;5039398;28;20224;-85
2022/12/21 08:09:10;;;;;;;62.03;23.57;;;9.20;99.90;;;;;;5044373;28;20548;-88
2022/12/21 08:11:37;;;;;;;47.97;21.00;;;9.20;99.90;;;;;;5041450;28;20594;-88
2022/12/21 08:14:05;;;;;;;39.47;20.80;;;9.30;1.00;;;;;;5042071;28;20594;-87
2022/12/21 08:16:34;;;;;;;48.40;22.97;;;9.30;1.00;;;;;;5021136;28;20196;-86
2022/12/21 08:19:02;;;;;;;80.77;22.33;;;9.30;1.00;;;;;;5031037;28;20196;-87
2022/12/21 08:21:29;;;;;;;126.93;20.70;;;9.20;1.00;;;;;;5020965;28;20237;-86
2022/12/21 08:23:56;;;;;;;92.83;20.33;;;9.60;1.00;;;;;;5025150;28;20720;-87
2022/12/21 08:26:23;;;;;;;177.33;21.87;;;9.20;1.00;;;;;;5012987;28;20195;-90
2022/12/21 08:28:51;;;;;;;61.03;18.50;;;9.20;99.90;;;;;;5025153;28;20205;-87
2022/12/21 08:31:27;;;;;;;354.27;26.97;;;9.20;1.00;;;;;;5015707;28;20254;-88
2022/12/21 08:33:54;;;;;;;59.07;17.93;;;9.10;99.90;;;;;;5023363;28;20235;-89
2022/12/21 08:36:23;;;;;;;34.67;19.40;;;9.10;1.00;;;;;;5012160;28;20258;-87
2022/12/21 08:38:53;;;;;;;32.63;19.70;;;9.20;1.00;;;;;;5027003;28;20251;-87
2022/12/21 08:41:37;;;;;;;32.77;19.23;;;9.40;99.90;;;;;;5029213;28;20251;-86
2022/12/21 08:44:07;;;;;;;35.87;22.50;;;9.40;99.90;;;;;;5032676;28;20203;-88
2022/12/21 08:46:35;;;;;;;35.80;21.57;;;9.40;99.90;;;;;;5035264;28;20192;-88
2022/12/21 08:49:03;;;;;;;47.07;24.57;;;9.40;99.90;;;;;;5020349;28;20224;-88
2022/12/21 08:51:30;;;;;;;45.30;24.10;;;9.40;99.90;;;;;;5031245;28;20200;-88
2022/12/21 08:53:58;;;;;;;39.60;24.73;;;9.40;99.90;;;;;;5025507;28;20641;-88
2022/12/21 08:56:27;;;;;;;42.30;24.83;;;9.40;99.90;;;;;;5015291;28;20231;-89
2022/12/21 08:58:54;;;;;;;42.87;21.77;;;9.40;99.90;;;;;;5049535;28;20678;-87
2022/12/21 09:01:23;;;;;;;40.20;22.10;;;9.40;99.90;;;;;;5008399;28;20647;-89
2022/12/21 09:03:50;;;;;;;37.73;21.50;;;9.60;99.90;;;;;;5012233;28;20228;-90
2022/12/21 09:06:17;;;;;;;36.83;20.90;;;9.50;99.90;;;;;;5031951;28;20235;-88
2022/12/21 09:08:45;;;;;;;38.70;20.50;;;9.60;99.90;;;;;;5050404;28;20223;-88
2022/12/21 09:11:15;;;;;;;37.63;20.30;;;9.60;99.90;;;;;;5033389;28;20210;-85
2022/12/21 09:13:42;;;;;;;35.93;20.00;;;9.60;99.90;;;;;;5031409;28;20215;-87
2022/12/21 09:16:15;;;;;;;31.93;18.87;;;9.60;99.90;;;;;;5029511;28;20184;-88
2022/12/21 09:18:43;;;;;;;30.97;18.77;;;9.60;99.90;;;;;;4999412;28;20649;-87
2022/12/21 09:21:13;;;;;;;30.73;18.00;;;9.50;99.90;;;;;;5022761;28;20201;-88
2022/12/21 09:23:41;;;;;;;30.60;18.53;;;9.60;99.90;;;;;;5017665;28;20196;-88
2022/12/21 09:26:09;;;;;;;31.00;19.13;;;9.60;99.90;;;;;;5015520;28;20602;-86
2022/12/21 09:28:38;;;;;;;37.80;19.57;;;9.80;99.90;;;;;;5019503;28;20720;-87
2022/12/21 09:31:15;;;;;;;34.00;19.53;;;9.90;99.90;;;;;;5017027;28;20196;-88
2022/12/21 09:33:54;;;;;;;35.00;20.10;;;9.90;99.90;;;;;;5011521;28;20188;-88
2022/12/21 09:36:25;;;;;;;44.90;23.43;;;9.90;99.90;;;;;;5024973;28;20251;-85
2022/12/21 09:38:58;;;;;;;51.80;27.33;;;9.80;99.90;;;;;;5020029;28;20201;-88
2022/12/21 09:41:48;;;;;;;54.43;25.80;;;9.70;99.90;;;;;;5006810;28;20205;-89
2022/12/21 09:44:59;;;;;;;56.53;26.67;;;9.60;99.90;;;;;;5017396;28;20250;-86
2022/12/21 09:47:45;;;;;;;64.97;25.97;;;9.60;99.90;;;;;;5021880;28;20211;-87
2022/12/21 09:50:19;;;;;;;62.93;26.40;;;9.50;99.90;;;;;;5025407;28;20223;-87
2022/12/21 09:52:54;;;;;;;61.37;28.70;;;9.50;99.90;;;;;;5042736;28;20216;-86
2022/12/21 09:55:25;;;;;;;68.07;28.13;;;9.50;99.90;;;;;;5035931;28;20228;-87
2022/12/21 09:58:01;;;;;;;56.77;26.70;;;9.70;99.90;;;;;;5032340;28;20207;-87
2022/12/21 10:00:31;;;;;;;52.37;25.60;;;9.70;99.90;;;;;;5017500;28;20557;-85
2022/12/21 10:03:13;;;;;;;48.23;24.47;;;9.80;99.90;;;;;;5000385;28;20203;-87
2022/12/21 10:06:06;;;;;;;54.07;30.53;;;9.80;99.90;;;;;;5021615;28;20271;-86
2022/12/21 10:09:08;;;;;;;48.93;24.83;;;9.70;99.90;;;;;;5010834;28;20224;-88
2022/12/21 10:12:10;;;;;;;43.50;23.23;;;9.60;41.90;;;;;;4948949;28;20201;-89
2022/12/21 10:14:49;;;;;;;48.10;23.93;;;9.60;16.40;;;;;;5010797;28;20204;-88
2022/12/21 10:17:50;;;;;;;48.97;23.53;;;9.70;99.90;;;;;;5001872;28;20280;-86
2022/12/21 10:20:25;;;;;;;47.70;23.03;;;9.80;99.90;;;;;;4996118;28;20707;-87
2022/12/21 10:22:56;;;;;;;42.53;21.67;;;9.70;1.00;;;;;;4993964;28;20193;-89
2022/12/21 10:25:27;;;;;;;43.13;22.97;;;9.60;1.00;;;;;;4989821;28;20209;-85
2022/12/21 10:28:32;;;;;;;42.23;21.40;;;9.70;1.00;;;;;;5009428;28;20224;-85
2022/12/21 10:31:09;;;;;;;43.47;21.57;;;9.70;99.90;;;;;;5005326;28;20525;-88
2022/12/21 10:33:40;;;;;;;42.80;22.97;;;9.70;99.90;;;;;;5007835;28;20192;-86
2022/12/21 10:36:17;;;;;;;40.47;21.70;;;9.70;1.00;;;;;;5006280;28;20209;-90
2022/12/21 10:38:45;;;;;;;47.17;22.43;;;9.60;1.00;;;;;;5007050;28;20191;-88
2022/12/21 10:41:18;;;;;;;43.50;22.70;;;9.50;99.90;;;;;;5003190;28;20202;-86
2022/12/21 10:43:48;;;;;;;47.77;23.93;;;9.50;30.60;;;;;;5007113;28;20228;-88
2022/12/21 10:46:20;;;;;;;51.13;24.43;;;9.60;1.00;;;;;;4992636;28;20192;-88
2022/12/21 10:48:50;;;;;;;52.90;28.93;;;9.50;99.90;;;;;;5000672;28;20276;-88
2022/12/21 10:51:28;;;;;;;65.87;40.57;;;9.50;99.90;;;;;;5003457;28;20193;-88
2022/12/21 10:54:07;;;;;;;56.53;30.47;;;9.60;26.80;;;;;;4987569;28;20192;-86
2022/12/21 10:56:48;;;;;;;46.23;23.83;;;9.80;15.20;;;;;;5006365;28;20204;-88
2022/12/21 10:59:26;;;;;;;47.93;23.57;;;9.90;1.00;;;;;;4998295;28;20247;-89
2022/12/21 11:01:53;;;;;;;43.83;23.27;;;9.50;1.00;;;;;;4988513;28;20197;-88
2022/12/21 11:04:24;;;;;;;46.17;23.57;;;9.80;1.00;;;;;;5007726;28;20221;-89
2022/12/21 11:06:59;;;;;;;45.20;22.30;;;9.80;99.90;;;;;;5016467;28;20300;-87
2022/12/21 11:09:55;;;;;;;46.93;23.83;;;9.80;1.00;;;;;;5029386;28;20583;-91
2022/12/21 11:12:51;;;;;;;52.43;24.67;;;9.90;99.90;;;;;;5033285;28;20274;-89
2022/12/21 11:15:21;;;;;;;49.97;24.73;;;9.90;18.90;;;;;;5019826;28;20238;-88
2022/12/21 11:18:46;;;;;;;46.43;23.60;;;9.80;1.00;;;;;;5038879;28;20231;-88
2022/12/21 11:21:31;;;;;;;46.13;22.30;;;9.70;44.80;;;;;;4999864;28;20727;-89
2022/12/21 11:24:04;;;;;;;48.70;22.33;;;9.80;1.00;;;;;;5018117;28;20584;-90
2022/12/21 11:26:44;;;;;;;46.03;23.10;;;9.80;1.00;;;;;;5019066;28;20203;-89
2022/12/21 11:29:29;;;;;;;52.00;24.70;;;9.90;99.90;;;;;;5013348;28;20231;-88
2022/12/21 11:32:04;;;;;;;45.33;23.90;;;10.00;99.90;;;;;;5042972;28;20184;-88
2022/12/21 11:34:34;;;;;;;49.07;25.03;;;9.90;11.40;;;;;;5016940;28;20569;-87
2022/12/21 11:37:24;;;;;;;46.07;25.27;;;9.80;1.00;;;;;;5031868;28;20242;-88
2022/12/21 11:39:54;;;;;;;51.73;27.27;;;9.70;1.00;;;;;;5019378;28;20210;-87
2022/12/21 11:42:24;;;;;;;58.00;28.03;;;9.60;1.00;;;;;;5035886;28;20552;-87
2022/12/21 11:45:21;;;;;;;63.53;31.20;;;9.50;1.00;;;;;;5032781;28;20196;-91
2022/12/21 11:48:26;;;;;;;63.90;31.87;;;9.60;1.00;;;;;;5021575;28;20223;-87
2022/12/21 11:51:14;;;;;;;73.63;34.17;;;9.60;1.00;;;;;;5012439;28;20238;-88
2022/12/21 11:53:53;;;;;;;75.33;34.07;;;9.60;1.00;;;;;;5011416;28;20255;-86
2022/12/21 11:56:42;;;;;;;78.47;37.40;;;9.60;1.00;;;;;;5013127;28;20202;-88
2022/12/21 11:59:40;;;;;;;79.80;38.20;;;9.50;1.00;;;;;;5010099;28;20529;-88
2022/12/21 12:02:07;;;;;;;73.43;36.63;;;9.60;1.00;;;;;;4986103;28;20196;-88
2022/12/21 12:04:57;;;;;;;74.77;36.97;;;9.60;1.00;;;;;;5036221;28;20282;-89
2022/12/21 12:07:34;;;;;;;74.40;39.47;;;9.60;1.00;;;;;;5010876;28;20216;-89
2022/12/21 12:10:37;;;;;;;67.73;36.10;;;9.50;1.00;;;;;;5013904;28;20649;-89
2022/12/21 12:13:34;;;;;;;66.53;33.83;;;9.20;99.90;;;;;;5002254;28;20523;-90
2022/12/21 12:16:51;;;;;;;57.67;32.13;;;9.40;99.90;;;;;;4999192;28;20212;-87
2022/12/21 12:19:39;;;;;;;62.63;32.47;;;9.40;99.90;;;;;;5037949;28;20204;-87
2022/12/21 12:22:21;;;;;;;56.47;31.00;;;9.50;99.90;;;;;;5011391;28;20214;-88
2022/12/21 12:25:12;;;;;;;61.07;33.33;;;9.60;99.90;;;;;;5033012;28;20200;-86
2022/12/21 12:27:54;;;;;;;60.97;31.47;;;9.70;99.90;;;;;;5005079;28;20270;-87
2022/12/21 12:30:31;;;;;;;49.60;28.47;;;9.70;99.90;;;;;;5055365;28;20200;-86
2022/12/21 12:33:39;;;;;;;56.73;29.43;;;9.70;99.90;;;;;;5049232;28;20537;-87
2022/12/21 12:36:06;;;;;;;50.37;29.20;;;9.80;99.90;;;;;;4979412;28;20561;-88
2022/12/21 12:39:07;;;;;;;51.03;27.90;;;9.90;99.90;;;;;;5024820;28;20199;-87
2022/12/21 12:41:49;;;;;;;52.20;28.40;;;9.80;99.90;;;;;;5017071;28;20710;-88
2022/12/21 12:44:45;;;;;;;45.23;25.57;;;9.70;53.20;;;;;;5007688;28;20195;-88
2022/12/21 12:47:43;;;;;;;46.53;25.87;;;9.70;46.20;;;;;;5030420;28;20462;-88
2022/12/21 12:50:26;;;;;;;36.17;20.10;;;9.70;79.10;;;;;;5030437;28;20247;-87
2022/12/21 12:53:12;;;;;;;29.37;17.80;;;9.80;29.70;;;;;;5023031;28;20203;-86
2022/12/21 12:56:34;;;;;;;28.83;16.67;;;9.80;17.60;;;;;;5020747;28;20203;-88
2022/12/21 12:59:27;;;;;;;20.23;12.83;;;9.70;5.50;;;;;;4923007;28;20218;-88
2022/12/21 13:02:22;;;;;;;20.93;13.03;;;9.70;1.00;;;;;;4924340;29;20218;-89
2022/12/21 13:05:06;;;;;;;24.37;12.47;;;9.70;1.00;;;;;;4940806;29;20236;-86
2022/12/21 13:07:52;;;;;;;27.97;11.87;;;9.70;1.00;;;;;;4914783;29;20208;-90
2022/12/21 13:10:35;;;;;;;17.80;10.63;;;9.60;1.00;;;;;;5007054;28;20196;-89
2022/12/21 13:13:19;;;;;;;23.97;10.87;;;9.60;1.00;;;;;;5013917;28;20201;-88
2022/12/21 13:16:06;;;;;;;22.07;9.93;;;9.60;1.00;;;;;;5019784;28;20184;-88
2022/12/21 13:18:53;;;;;;;18.63;10.03;;;9.60;1.00;;;;;;5024373;28;20253;-85
2022/12/21 13:21:25;;;;;;;17.53;9.43;;;9.60;1.00;;;;;;5030939;28;20302;-86
2022/12/21 13:24:15;;;;;;;21.07;10.47;;;9.60;1.00;;;;;;5031634;28;20211;-87
2022/12/21 13:26:54;;;;;;;22.30;11.43;;;9.50;1.00;;;;;;5027853;28;20220;-88
2022/12/21 13:29:30;;;;;;;19.67;10.57;;;9.40;1.00;;;;;;5037677;28;20216;-89
2022/12/21 13:32:12;;;;;;;20.70;10.67;;;9.40;1.00;;;;;;5013307;28;20666;-88
2022/12/21 13:35:04;;;;;;;24.87;12.03;;;9.40;1.00;;;;;;5020593;28;20656;-89